Time;durP1;ratioP1;P1;durP2;ratioP2;P2;SDS_P1;SDS_P2;PMS_P1;PMS_P2;Temp;Humidity;BMP_temperature;BMP_pressure;BME280_temperature;BME280_humidity;BME280_pressure;Samples;Min_cycle;Max_cycle;Signal;HPM_P1;HPM_P2
2022/05/05 00:00:58;;;;;;;7.35;4.82;;;11.60;81.00;;;;;;5012170;28;20023;-92
2022/05/05 00:03:24;;;;;;;6.03;4.70;;;11.60;81.20;;;;;;5031472;28;20036;-90
2022/05/05 00:05:52;;;;;;;7.43;4.75;;;11.60;81.30;;;;;;5096524;28;20146;-93
2022/05/05 00:08:25;;;;;;;8.85;5.32;;;11.60;81.50;;;;;;5092680;28;20052;-93
2022/05/05 00:16:34;;;;;;;8.27;4.38;;;11.60;81.80;;;;;;5082595;28;20028;-92
2022/05/05 00:19:06;;;;;;;6.50;5.15;;;11.60;81.90;;;;;;5088149;28;20569;-92
2022/05/05 00:21:37;;;;;;;6.32;4.63;;;11.60;82.10;;;;;;5065720;28;20325;-91
2022/05/05 00:24:06;;;;;;;5.88;4.63;;;11.70;82.30;;;;;;5080035;28;20020;-92
2022/05/05 00:26:45;;;;;;;6.85;4.90;;;11.70;82.40;;;;;;5080214;28;20027;-92
2022/05/05 00:29:11;;;;;;;8.35;4.57;;;11.70;82.60;;;;;;5063297;28;20115;-93
2022/05/05 00:31:42;;;;;;;9.23;5.40;;;11.70;82.60;;;;;;5082184;28;20087;-92
2022/05/05 00:34:18;;;;;;;7.30;4.65;;;11.70;82.70;;;;;;5049037;28;20028;-93
2022/05/05 00:36:45;;;;;;;8.65;5.15;;;11.70;82.70;;;;;;5084884;28;20047;-92
2022/05/05 00:39:19;;;;;;;7.45;5.10;;;11.70;82.80;;;;;;5080739;28;20027;-91
2022/05/05 00:41:48;;;;;;;8.70;5.10;;;11.70;82.90;;;;;;5062084;28;20028;-93
2022/05/05 00:44:19;;;;;;;7.72;4.97;;;11.70;83.00;;;;;;5077918;28;20012;-93
2022/05/05 00:46:50;;;;;;;7.55;5.40;;;11.70;83.10;;;;;;5077589;28;20017;-91
2022/05/05 00:49:19;;;;;;;8.00;5.00;;;11.70;83.10;;;;;;5077305;28;20111;-91
2022/05/05 00:51:47;;;;;;;7.18;4.97;;;11.70;83.10;;;;;;5077481;28;20028;-92
2022/05/05 00:54:19;;;;;;;10.23;5.30;;;11.70;83.20;;;;;;5077543;28;20073;-92
2022/05/05 00:56:48;;;;;;;8.48;5.18;;;11.70;83.20;;;;;;5076950;28;20065;-92
2022/05/05 00:59:19;;;;;;;8.63;5.20;;;11.70;83.30;;;;;;5077105;28;20032;-91
2022/05/05 01:01:47;;;;;;;5.20;4.70;;;11.70;83.50;;;;;;5060925;28;20035;-91
2022/05/05 01:04:14;;;;;;;8.65;4.93;;;11.70;83.50;;;;;;5060932;28;20118;-92
2022/05/05 01:06:42;;;;;;;7.82;5.15;;;11.70;83.50;;;;;;5077928;28;20108;-92
2022/05/05 01:09:08;;;;;;;5.40;4.85;;;11.70;83.60;;;;;;5077444;28;20119;-93
2022/05/05 01:11:40;;;;;;;8.55;4.85;;;11.60;83.60;;;;;;5076724;28;20120;-92
2022/05/05 01:14:29;;;;;;;6.97;4.80;;;11.60;83.70;;;;;;5075256;28;20072;-91
2022/05/05 01:16:58;;;;;;;9.40;5.38;;;11.60;83.90;;;;;;5077094;28;20047;-90
2022/05/05 01:19:27;;;;;;;7.95;5.55;;;11.50;84.00;;;;;;5076881;28;20034;-90
2022/05/05 01:22:03;;;;;;;8.32;5.20;;;11.50;84.10;;;;;;5078533;28;20063;-89
2022/05/05 01:30:09;;;;;;;10.32;5.97;;;11.50;84.30;;;;;;5078409;28;20047;-90
2022/05/05 01:32:37;;;;;;;7.43;5.40;;;11.40;84.40;;;;;;5078234;28;20112;-90
2022/05/05 01:35:07;;;;;;;8.77;5.57;;;11.40;84.50;;;;;;5079584;28;20032;-89
2022/05/05 01:37:35;;;;;;;11.27;6.13;;;11.30;84.60;;;;;;5091132;28;20120;-89
2022/05/05 01:40:02;;;;;;;9.57;5.65;;;11.30;84.70;;;;;;5096836;28;20040;-86
2022/05/05 01:45:39;;;;;;;7.57;5.53;;;11.20;85.00;;;;;;5075723;28;20036;-90
2022/05/05 01:48:10;;;;;;;7.55;5.53;;;11.20;85.10;;;;;;5080061;28;20116;-90
2022/05/05 01:50:38;;;;;;;;;;;11.20;85.20;;;;;;5078633;28;20468;-90
2022/05/05 01:53:45;;;;;;;11.95;5.60;;;11.10;85.20;;;;;;5079202;28;19905;-89
2022/05/05 01:56:23;;;;;;;7.07;5.07;;;11.10;85.40;;;;;;5079938;28;20092;-89
2022/05/05 01:58:51;;;;;;;8.55;5.07;;;11.00;85.40;;;;;;5061699;28;20029;-89
2022/05/05 02:02:06;;;;;;;9.98;5.95;;;11.00;85.40;;;;;;5060081;28;20037;-90
2022/05/05 02:04:53;;;;;;;8.30;5.90;;;11.00;85.60;;;;;;5076046;28;20502;-90
2022/05/05 02:07:27;;;;;;;8.25;4.97;;;11.00;85.60;;;;;;5060024;28;20132;-89
2022/05/05 02:10:06;;;;;;;;;;;;;;;;;;;;;
2022/05/05 02:13:03;;;;;;;8.85;5.40;;;10.90;85.70;;;;;;5075176;28;20051;-90
2022/05/05 02:15:39;;;;;;;7.15;5.22;;;10.90;85.80;;;;;;5059233;28;20037;-89
2022/05/05 02:18:15;;;;;;;8.32;5.53;;;10.90;85.80;;;;;;5076367;28;20472;-90
2022/05/05 02:21:09;;;;;;;8.35;5.80;;;10.80;85.90;;;;;;5075590;28;20012;-92
2022/05/05 02:24:10;;;;;;;13.70;5.80;;;10.80;85.90;;;;;;5075975;28;20353;-89
2022/05/05 02:27:02;;;;;;;10.48;5.22;;;10.80;86.20;;;;;;5075174;28;20112;-90
2022/05/05 02:29:51;;;;;;;7.75;5.05;;;10.80;86.20;;;;;;5048283;28;20477;-89
2022/05/05 02:32:39;;;;;;;8.90;5.45;;;10.70;86.20;;;;;;5075742;28;20468;-90
2022/05/05 02:35:19;;;;;;;;;;;;;;;;;;;;;
2022/05/05 02:40:52;;;;;;;7.90;5.93;;;10.60;86.50;;;;;;5076723;28;20039;-91
2022/05/05 02:44:07;;;;;;;9.90;5.80;;;10.50;86.60;;;;;;5075805;28;20055;-89
2022/05/05 02:46:53;;;;;;;;;;;;;;;;;;;;;
2022/05/05 02:49:38;;;;;;;8.15;5.90;;;10.40;86.80;;;;;;5076455;28;20047;-90
2022/05/05 02:52:48;;;;;;;8.25;5.72;;;10.40;87.00;;;;;;5075144;28;20423;-90
2022/05/05 02:55:23;;;;;;;10.55;5.68;;;10.30;87.10;;;;;;5076360;28;20024;-91
2022/05/05 02:58:10;;;;;;;9.95;6.25;;;10.30;87.10;;;;;;5074999;28;20088;-90
2022/05/05 03:00:41;;;;;;;9.13;6.10;;;10.30;87.30;;;;;;5060387;28;20028;-90
2022/05/05 03:03:17;;;;;;;;;;;10.20;87.40;;;;;;5075722;28;20400;-91
2022/05/05 03:05:54;;;;;;;7.72;6.18;;;10.20;87.50;;;;;;5076357;28;19909;-90
2022/05/05 03:08:52;;;;;;;8.82;5.55;;;10.10;87.60;;;;;;5076073;28;20495;-92
2022/05/05 03:11:43;;;;;;;8.02;6.22;;;10.10;87.70;;;;;;5067793;28;20479;-88
2022/05/05 03:14:17;;;;;;;8.45;5.85;;;10.10;87.80;;;;;;5062093;28;20070;-92
2022/05/05 03:16:54;;;;;;;8.65;5.70;;;10.00;87.80;;;;;;5077043;28;20118;-92
2022/05/05 03:19:22;;;;;;;8.25;5.85;;;10.00;87.90;;;;;;5074700;28;20032;-93
2022/05/05 03:21:57;;;;;;;9.02;5.82;;;10.00;87.90;;;;;;5093565;28;20028;-92
2022/05/05 03:24:34;;;;;;;8.07;5.85;;;9.90;88.00;;;;;;5078460;28;20048;-91
2022/05/05 03:27:04;;;;;;;8.38;5.65;;;9.90;88.10;;;;;;5064766;28;20388;-92
2022/05/05 03:29:39;;;;;;;7.93;6.32;;;9.90;88.30;;;;;;5058807;28;20376;-92
2022/05/05 03:32:11;;;;;;;8.98;5.28;;;9.90;88.40;;;;;;5073980;28;20029;-91
2022/05/05 03:34:58;;;;;;;;;;;;;;;;;;;;;
2022/05/05 03:37:37;;;;;;;7.55;5.80;;;9.90;88.60;;;;;;5061090;28;20494;-91
2022/05/05 03:40:09;;;;;;;7.60;5.75;;;9.90;88.80;;;;;;5075477;28;20056;-91
2022/05/05 03:43:03;;;;;;;7.32;5.85;;;9.80;88.80;;;;;;5057400;28;20029;-93
2022/05/05 03:45:36;;;;;;;10.00;5.95;;;9.80;88.80;;;;;;5061024;28;20128;-92
2022/05/05 03:48:12;;;;;;;7.82;5.88;;;9.80;88.90;;;;;;5042501;28;20484;-91
2022/05/05 03:50:56;;;;;;;7.82;5.68;;;9.80;89.00;;;;;;5041061;28;20127;-92
2022/05/05 03:53:42;;;;;;;11.25;6.38;;;9.80;89.10;;;;;;5074067;28;20526;-92
2022/05/05 03:56:13;;;;;;;8.35;6.35;;;9.70;89.10;;;;;;5075018;28;20026;-90
2022/05/05 03:59:22;;;;;;;8.68;5.55;;;9.70;89.10;;;;;;5056766;28;20102;-91
2022/05/05 04:01:53;;;;;;;9.15;6.03;;;9.70;89.30;;;;;;5073213;28;20032;-91
2022/05/05 04:04:25;;;;;;;7.40;5.68;;;9.70;89.30;;;;;;5075064;28;20029;-91
2022/05/05 04:06:57;;;;;;;8.32;6.15;;;9.70;89.50;;;;;;5057180;28;20032;-93
2022/05/05 04:09:28;;;;;;;9.60;5.80;;;9.70;89.50;;;;;;5073787;28;20024;-91
2022/05/05 04:12:14;;;;;;;9.30;6.28;;;9.70;89.60;;;;;;5058986;28;20025;-91
2022/05/05 04:14:45;;;;;;;7.97;5.95;;;9.60;89.60;;;;;;5060774;28;20028;-92
2022/05/05 04:17:41;;;;;;;9.95;6.03;;;9.70;89.80;;;;;;5076930;28;20012;-91
2022/05/05 04:20:12;;;;;;;8.02;5.78;;;9.70;89.80;;;;;;5076898;28;20024;-92
2022/05/05 04:22:48;;;;;;;;;;;;;;;;;;;;;
2022/05/05 04:25:20;;;;;;;8.35;6.40;;;9.70;89.90;;;;;;5094808;28;20016;-91
2022/05/05 04:27:54;;;;;;;8.48;5.80;;;9.70;90.00;;;;;;5060578;28;20020;-91
2022/05/05 04:30:24;;;;;;;8.30;5.82;;;9.70;90.00;;;;;;5077127;28;20104;-90
2022/05/05 04:32:52;;;;;;;7.72;5.78;;;9.80;90.00;;;;;;5060441;28;20454;-91
2022/05/05 04:35:31;;;;;;;;;;;;;;;;;;;;;
2022/05/05 04:37:59;;;;;;;7.85;6.20;;;9.90;90.00;;;;;;5094913;28;20455;-91
2022/05/05 04:40:44;;;;;;;9.73;6.18;;;9.90;90.00;;;;;;5077071;28;20012;-91
2022/05/05 04:43:23;;;;;;;11.20;6.80;;;10.00;90.10;;;;;;5077936;28;20051;-92
2022/05/05 04:45:55;;;;;;;10.02;6.35;;;10.00;90.00;;;;;;5062639;28;20090;-91
2022/05/05 04:51:42;;;;;;;;;;;10.20;90.10;;;;;;5102654;28;20031;-90
2022/05/05 04:54:12;;;;;;;11.38;6.55;;;10.20;90.10;;;;;;5087889;28;19904;-92
2022/05/05 04:56:48;;;;;;;8.77;6.33;;;10.20;90.10;;;;;;5103235;28;20031;-90
2022/05/05 04:59:29;;;;;;;8.60;6.32;;;10.30;90.20;;;;;;5080394;28;20312;-91
2022/05/05 05:02:06;;;;;;;12.75;6.93;;;10.30;90.50;;;;;;5108262;28;20022;-91
2022/05/05 05:04:39;;;;;;;10.70;6.70;;;10.40;90.30;;;;;;5082228;28;20020;-91
2022/05/05 05:07:10;;;;;;;10.85;6.85;;;10.40;90.20;;;;;;5080618;28;20040;-91
2022/05/05 05:09:41;;;;;;;9.80;6.43;;;10.40;90.30;;;;;;5080669;28;20033;-92
2022/05/05 05:12:09;;;;;;;10.93;6.45;;;10.50;90.30;;;;;;5076700;28;20049;-92
2022/05/05 05:14:47;;;;;;;10.55;6.90;;;10.50;90.20;;;;;;5060570;28;20064;-91
2022/05/05 05:17:15;;;;;;;11.52;6.80;;;10.60;90.20;;;;;;5077972;28;20099;-92
2022/05/05 05:20:02;;;;;;;9.75;6.90;;;10.60;90.30;;;;;;5076867;28;20510;-91
2022/05/05 05:22:35;;;;;;;10.90;6.85;;;10.60;90.30;;;;;;5077078;28;20491;-91
2022/05/05 05:25:16;;;;;;;10.02;6.45;;;10.60;90.40;;;;;;5043647;28;20035;-91
2022/05/05 05:28:26;;;;;;;8.82;6.43;;;10.70;90.40;;;;;;5077113;28;20025;-91
2022/05/05 05:30:53;;;;;;;8.38;6.72;;;10.70;90.50;;;;;;5076697;28;20044;-92
2022/05/05 05:33:35;;;;;;;10.45;6.45;;;10.70;90.50;;;;;;5076149;28;20161;-91
2022/05/05 05:36:27;;;;;;;10.38;6.85;;;10.70;90.60;;;;;;5076524;28;20344;-91
2022/05/05 05:38:53;;;;;;;9.77;6.72;;;10.70;90.60;;;;;;5076570;28;20031;-92
2022/05/05 05:41:34;;;;;;;11.23;6.97;;;10.80;90.60;;;;;;5059636;28;20040;-91
2022/05/05 05:44:33;;;;;;;13.52;7.00;;;10.80;90.70;;;;;;5061177;28;20032;-94
2022/05/05 05:47:29;;;;;;;8.75;6.57;;;10.80;90.70;;;;;;5077265;28;20017;-91
2022/05/05 05:50:22;;;;;;;10.27;6.68;;;10.90;90.70;;;;;;5076042;28;20052;-90
2022/05/05 05:52:55;;;;;;;13.25;7.22;;;10.90;90.60;;;;;;5062107;28;20038;-88
2022/05/05 05:55:26;;;;;;;10.95;7.07;;;10.90;90.60;;;;;;5059895;28;20054;-90
2022/05/05 05:58:52;;;;;;;;;;;;;;;;;;;;;
2022/05/05 06:04:33;;;;;;;10.77;7.50;;;11.00;90.70;;;;;;5077194;28;20490;-91
2022/05/05 06:07:23;;;;;;;15.98;8.48;;;11.00;90.60;;;;;;5063031;28;20408;-91
2022/05/05 06:10:08;;;;;;;11.32;7.43;;;11.10;90.60;;;;;;5060714;28;20499;-91
2022/05/05 06:13:00;;;;;;;11.32;7.70;;;11.10;90.60;;;;;;5075499;28;20102;-91
2022/05/05 06:15:43;;;;;;;;;;;;;;;;;;;;;
2022/05/05 06:18:12;;;;;;;10.73;8.30;;;11.20;90.60;;;;;;5076885;28;20028;-91
2022/05/05 06:21:28;;;;;;;;;;;;;;;;;;;;;
2022/05/05 06:24:04;;;;;;;;;;;;;;;;;;;;;
2022/05/05 06:26:37;;;;;;;12.45;7.80;;;11.30;90.40;;;;;;5077926;28;20013;-91
2022/05/05 06:29:13;;;;;;;10.77;7.78;;;11.40;90.40;;;;;;5061236;28;20032;-91
2022/05/05 06:31:41;;;;;;;13.02;8.07;;;11.40;90.30;;;;;;5083093;28;20012;-91
2022/05/05 06:34:16;;;;;;;13.65;8.23;;;11.50;90.30;;;;;;5082191;28;20061;-92
2022/05/05 06:36:56;;;;;;;11.15;8.13;;;11.60;90.20;;;;;;5082619;28;20052;-92
2022/05/05 06:39:31;;;;;;;11.55;7.53;;;11.60;90.20;;;;;;5084101;28;20038;-91
2022/05/05 06:42:10;;;;;;;11.00;7.75;;;11.70;90.10;;;;;;5077206;28;20291;-91
2022/05/05 06:44:48;;;;;;;9.68;7.25;;;11.70;90.00;;;;;;5078009;28;20024;-91
2022/05/05 06:47:22;;;;;;;11.25;7.88;;;11.80;90.00;;;;;;5076174;28;20056;-92
2022/05/05 06:49:50;;;;;;;11.27;7.32;;;11.90;89.80;;;;;;5058545;28;20484;-92
2022/05/05 06:52:26;;;;;;;11.15;7.82;;;11.90;89.70;;;;;;5075376;28;20051;-91
2022/05/05 06:55:04;;;;;;;14.02;8.85;;;12.00;89.70;;;;;;5058966;28;20033;-92
2022/05/05 06:57:43;;;;;;;12.13;8.50;;;12.10;89.50;;;;;;5060039;28;20036;-91
2022/05/05 07:03:31;;;;;;;13.77;7.95;;;12.30;89.00;;;;;;5075447;28;20451;-91
2022/05/05 07:06:00;;;;;;;13.80;7.30;;;12.40;88.90;;;;;;5058993;28;20087;-91
2022/05/05 07:11:44;;;;;;;;;;;;;;;;;;;;;
2022/05/05 07:14:25;;;;;;;;;;;;;;;;;;;;;
2022/05/05 07:16:56;;;;;;;15.32;7.97;;;12.70;88.40;;;;;;5075298;28;20025;-91
2022/05/05 07:19:34;;;;;;;11.50;7.18;;;12.80;88.30;;;;;;5074776;28;20032;-91
2022/05/05 07:22:37;;;;;;;9.40;7.32;;;12.80;88.20;;;;;;5074436;28;20017;-91
2022/05/05 07:45:05;;;;;;;11.07;7.07;;;13.80;87.10;;;;;;5064933;28;20033;-92
2022/05/05 07:48:05;;;;;;;;;;;;;;;;;;;;;
2022/05/05 07:51:29;;;;;;;;;;;;;;;;;;;;;
2022/05/05 07:56:54;;;;;;;;;;;;;;;;;;;;;
2022/05/05 08:03:23;;;;;;;;;;;;;;;;;;;;;
2022/05/05 08:10:11;;;;;;;9.55;7.13;;;15.00;84.80;;;;;;5063301;28;20137;-92
2022/05/05 08:37:32;;;;;;;;;;;15.90;81.80;;;;;;5033440;28;20020;-92
2022/05/05 08:41:11;;;;;;;;;;;;;;;;;;;;;
2022/05/05 08:43:58;;;;;;;;;;;;;;;;;;;;;
2022/05/05 08:46:43;;;;;;;;;;;;;;;;;;;;;
2022/05/05 08:59:52;;;;;;;10.30;7.00;;;16.60;79.30;;;;;;5008447;28;20089;-91
2022/05/05 09:03:01;;;;;;;11.73;7.53;;;16.70;78.50;;;;;;4993136;28;20105;-91
2022/05/05 09:06:16;;;;;;;12.13;8.10;;;16.70;78.40;;;;;;5055412;28;20038;-92
2022/05/05 09:09:00;;;;;;;9.90;7.10;;;16.70;78.00;;;;;;5072965;28;20039;-91
2022/05/05 09:12:04;;;;;;;11.13;7.78;;;16.80;78.00;;;;;;5073814;28;20032;-91
2022/05/05 09:21:41;;;;;;;;;;;;;;;;;;;;;
2022/05/05 09:27:38;;;;;;;10.63;7.40;;;17.10;76.60;;;;;;5068427;28;20103;-91
2022/05/05 09:33:40;;;;;;;12.23;8.30;;;17.20;76.40;;;;;;5070212;28;20059;-91
2022/05/05 09:40:24;;;;;;;10.52;7.82;;;17.30;76.00;;;;;;5077823;28;20036;-91
2022/05/05 09:43:15;;;;;;;;;;;;;;;;;;;;;
2022/05/05 09:45:57;;;;;;;;;;;;;;;;;;;;;
2022/05/05 09:49:07;;;;;;;;;;;;;;;;;;;;;
2022/05/05 10:01:20;;;;;;;;;;;;;;;;;;;;;
2022/05/05 10:07:51;;;;;;;;;;;;;;;;;;;;;
2022/05/05 10:14:14;;;;;;;;;;;;;;;;;;;;;
2022/05/05 10:17:03;;;;;;;11.23;8.07;;;17.70;73.90;;;;;;5120142;28;20032;-91
2022/05/05 10:20:09;;;;;;;;;;;;;;;;;;;;;
2022/05/05 10:29:44;;;;;;;10.35;7.55;;;18.00;74.00;;;;;;5085456;28;19915;-92
2022/05/05 10:32:24;;;;;;;11.55;8.25;;;18.00;73.90;;;;;;5078404;28;20099;-91
2022/05/05 10:42:37;;;;;;;15.02;9.80;;;18.20;73.10;;;;;;5080765;28;20372;-89
2022/05/05 10:48:48;;;;;;;;;;;;;;;;;;;;;
2022/05/05 10:51:45;;;;;;;15.75;11.02;;;18.20;72.40;;;;;;5096518;28;20424;-89
2022/05/05 10:54:59;;;;;;;;;;;;;;;;;;;;;
2022/05/05 10:57:38;;;;;;;13.70;10.68;;;18.20;71.80;;;;;;5014376;28;20034;-91
2022/05/05 11:03:26;;;;;;;;;;;;;;;;;;;;;
2022/05/05 11:13:36;;;;;;;10.77;6.90;;;18.50;72.10;;;;;;5065566;28;19969;-91
2022/05/05 11:22:36;;;;;;;8.77;7.27;;;18.70;71.80;;;;;;5095938;28;20066;-91
2022/05/05 11:28:40;;;;;;;;;;;;;;;;;;;;;
2022/05/05 11:31:41;;;;;;;;;;;;;;;;;;;;;
2022/05/05 11:38:07;;;;;;;11.07;8.27;;;19.10;71.70;;;;;;5080920;28;20028;-90
2022/05/05 11:41:02;;;;;;;12.38;8.95;;;19.20;71.10;;;;;;5016710;28;20037;-91
2022/05/05 11:46:46;;;;;;;9.25;8.23;;;19.30;70.50;;;;;;5095361;28;20042;-91
2022/05/05 11:49:35;;;;;;;;;;;;;;;;;;;;;
2022/05/05 11:52:43;;;;;;;;;;;;;;;;;;;;;
2022/05/05 11:55:44;;;;;;;;;;;;;;;;;;;;;
2022/05/05 12:01:56;;;;;;;;;;;;;;;;;;;;;
2022/05/05 12:04:45;;;;;;;10.63;8.30;;;19.60;69.80;;;;;;5106972;28;20111;-91
2022/05/05 12:07:43;;;;;;;9.68;7.47;;;19.70;69.70;;;;;;5056599;28;20088;-91
2022/05/05 12:10:41;;;;;;;9.95;7.05;;;19.70;69.40;;;;;;5076129;28;20107;-91
2022/05/05 12:23:04;;;;;;;;;;;;;;;;;;;;;
2022/05/05 12:26:14;;;;;;;;;;;;;;;;;;;;;
2022/05/05 12:29:06;;;;;;;9.27;7.10;;;19.70;68.10;;;;;;5039700;28;20543;-92
2022/05/05 12:32:09;;;;;;;9.45;7.43;;;19.80;68.50;;;;;;5022776;28;20132;-91
2022/05/05 12:35:20;;;;;;;8.75;7.38;;;19.80;68.60;;;;;;5021470;28;20039;-91
2022/05/05 12:38:17;;;;;;;9.43;8.38;;;19.90;68.30;;;;;;5021201;28;20040;-91
2022/05/05 12:41:39;;;;;;;;;;;;;;;;;;;;;
2022/05/05 12:44:58;;;;;;;10.32;7.47;;;19.90;68.20;;;;;;5047206;28;20028;-91
2022/05/05 12:47:38;;;;;;;9.43;7.78;;;20.00;68.50;;;;;;5071046;28;20431;-91
2022/05/05 13:03:31;;;;;;;;;;;;;;;;;;;;;
2022/05/05 13:12:06;;;;;;;9.27;7.47;;;20.20;68.00;;;;;;5078321;28;20112;-90
2022/05/05 13:14:57;;;;;;;9.77;7.88;;;20.30;68.00;;;;;;5084216;28;20335;-91
2022/05/05 13:17:23;;;;;;;10.68;9.00;;;20.30;68.60;;;;;;5086344;28;20103;-86
2022/05/05 13:19:52;;;;;;;14.23;11.27;;;20.40;68.00;;;;;;5086363;28;20484;-85
2022/05/05 13:22:25;;;;;;;10.50;9.40;;;20.30;67.60;;;;;;5101569;28;20028;-86
2022/05/05 13:25:06;;;;;;;11.35;9.38;;;20.40;67.80;;;;;;5065761;28;20020;-87
2022/05/05 13:27:33;;;;;;;10.82;8.77;;;20.40;68.00;;;;;;5083959;28;20025;-87
2022/05/05 13:30:14;;;;;;;11.88;9.30;;;20.40;67.80;;;;;;5087827;28;20032;-86
2022/05/05 13:32:42;;;;;;;9.43;7.07;;;20.40;67.60;;;;;;5109596;28;20027;-83
2022/05/05 13:35:10;;;;;;;8.50;7.55;;;20.50;67.70;;;;;;5096805;28;20036;-85
2022/05/05 13:37:41;;;;;;;10.35;8.10;;;20.50;67.50;;;;;;5101021;28;20101;-85
2022/05/05 13:40:10;;;;;;;10.98;8.70;;;20.50;67.20;;;;;;5103637;28;20059;-85
2022/05/05 13:42:36;;;;;;;11.18;8.27;;;20.60;67.20;;;;;;5103172;28;20058;-84
2022/05/05 13:45:04;;;;;;;9.88;7.88;;;20.70;67.20;;;;;;5081458;28;20028;-84
2022/05/05 13:47:38;;;;;;;8.85;6.97;;;20.70;66.90;;;;;;5082624;28;20016;-83
2022/05/05 13:50:09;;;;;;;9.13;7.07;;;20.70;66.80;;;;;;5079147;28;20036;-84
2022/05/05 13:52:40;;;;;;;9.18;6.43;;;20.80;66.60;;;;;;5097286;28;20024;-84
2022/05/05 13:55:08;;;;;;;6.80;6.10;;;20.90;66.30;;;;;;5078698;28;20044;-85
2022/05/05 13:57:34;;;;;;;7.72;6.50;;;21.00;66.10;;;;;;5062341;28;20472;-85
2022/05/05 14:00:19;;;;;;;9.30;7.63;;;21.00;65.90;;;;;;5080951;28;20039;-84
2022/05/05 14:02:48;;;;;;;10.55;8.05;;;21.00;65.10;;;;;;5084080;28;20024;-85
2022/05/05 14:05:14;;;;;;;9.40;7.25;;;21.00;64.50;;;;;;5097277;28;20013;-85
2022/05/05 14:14:00;;;;;;;;;;;;;;;;;;;;;
2022/05/05 14:23:43;;;;;;;7.95;6.85;;;20.90;64.70;;;;;;5036959;28;20046;-89
2022/05/05 14:26:40;;;;;;;;;;;;;;;;;;;;;
2022/05/05 14:32:38;;;;;;;7.78;6.18;;;20.70;64.80;;;;;;5031836;28;20429;-88
2022/05/05 14:35:29;;;;;;;7.57;5.63;;;20.60;65.00;;;;;;5077858;28;20020;-86
2022/05/05 14:38:05;;;;;;;7.25;6.07;;;20.60;65.10;;;;;;5077994;28;20021;-87
2022/05/05 14:41:00;;;;;;;7.90;6.00;;;20.50;65.30;;;;;;5061994;28;20032;-89
2022/05/05 14:44:05;;;;;;;9.55;6.82;;;20.50;65.20;;;;;;5078324;28;20369;-88
2022/05/05 14:46:55;;;;;;;;;;;;;;;;;;;;;
2022/05/05 14:49:42;;;;;;;;;;;;;;;;;;;;;
2022/05/05 14:52:29;;;;;;;6.80;6.07;;;20.30;65.60;;;;;;5095918;28;20482;-87
2022/05/05 14:55:03;;;;;;;8.13;6.20;;;20.30;65.10;;;;;;5061523;28;20082;-89
2022/05/05 14:57:38;;;;;;;7.68;6.03;;;20.20;65.30;;;;;;5077503;28;20024;-88
2022/05/05 15:04:00;;;;;;;;;;;;;;;;;;;;;
2022/05/05 15:07:24;;;;;;;8.02;5.82;;;20.10;65.30;;;;;;5078667;28;20028;-87
2022/05/05 15:13:02;;;;;;;7.75;5.35;;;20.10;65.50;;;;;;5012903;28;20045;-88
2022/05/05 15:15:43;;;;;;;;;;;;;;;;;;;;;
2022/05/05 15:18:26;;;;;;;10.20;6.78;;;20.00;65.60;;;;;;5096049;28;20484;-88
2022/05/05 15:21:15;;;;;;;;;;;;;;;;;;;;;
2022/05/05 15:24:32;;;;;;;10.02;6.65;;;20.00;65.30;;;;;;5063830;28;20032;-87
2022/05/05 15:27:27;;;;;;;8.45;7.05;;;19.90;65.10;;;;;;5076812;28;20099;-89
2022/05/05 15:30:47;;;;;;;10.40;8.18;;;19.90;64.80;;;;;;5060369;28;20028;-88
2022/05/05 15:33:38;;;;;;;10.07;7.80;;;19.80;64.60;;;;;;5060145;28;20036;-88
2022/05/05 15:36:43;;;;;;;;;;;;;;;;;;;;;
2022/05/05 15:39:46;;;;;;;7.85;6.95;;;19.70;64.50;;;;;;5095733;28;20031;-88
2022/05/05 15:42:52;;;;;;;;;;;;;;;;;;;;;
2022/05/05 15:52:38;;;;;;;;;;;;;;;;;;;;;
2022/05/05 16:03:00;;;;;;;;;;;;;;;;;;;;;
2022/05/05 16:06:09;;;;;;;;;;;;;;;;;;;;;
2022/05/05 16:09:13;;;;;;;7.97;6.78;;;19.40;63.90;;;;;;4945646;29;20070;-87
2022/05/05 16:12:30;;;;;;;10.48;8.73;;;19.40;63.80;;;;;;4937986;29;20028;-87
2022/05/05 16:15:41;;;;;;;9.15;6.03;;;19.40;63.70;;;;;;4892320;29;20053;-87
2022/05/05 16:18:22;;;;;;;;;;;;;;;;;;;;;
2022/05/05 16:30:58;;;;;;;;;;;;;;;;;;;;;
2022/05/05 16:40:47;;;;;;;8.00;6.35;;;19.20;63.40;;;;;;5085716;28;20024;-88
2022/05/05 16:43:34;;;;;;;8.55;5.95;;;19.10;63.50;;;;;;5075209;28;20040;-86
2022/05/05 16:49:59;;;;;;;7.70;6.65;;;19.10;63.70;;;;;;5036316;28;20207;-87
2022/05/05 16:56:31;;;;;;;;;;;;;;;;;;;;;
2022/05/05 17:02:40;;;;;;;;;;;;;;;;;;;;;
2022/05/05 17:15:34;;;;;;;;;;;;;;;;;;;;;
2022/05/05 17:18:33;;;;;;;;;;;;;;;;;;;;;
2022/05/05 17:21:34;;;;;;;;;;;;;;;;;;;;;
2022/05/05 17:24:44;;;;;;;;;;;;;;;;;;;;;
2022/05/05 17:27:41;;;;;;;9.70;6.07;;;18.80;65.70;;;;;;5097411;28;20030;-88
2022/05/05 17:30:45;;;;;;;;;;;;;;;;;;;;;
2022/05/05 17:33:17;;;;;;;10.32;6.50;;;18.70;66.60;;;;;;5080980;28;20487;-89
2022/05/05 17:35:43;;;;;;;7.43;5.53;;;18.70;66.10;;;;;;5078193;28;20082;-88
2022/05/05 17:42:11;;;;;;;8.80;6.35;;;18.70;66.40;;;;;;5053090;28;20039;-88
2022/05/05 17:52:17;;;;;;;6.88;5.47;;;18.70;66.50;;;;;;5098623;28;20093;-88
2022/05/05 17:58:19;;;;;;;9.15;6.30;;;18.60;66.60;;;;;;5035413;28;20388;-88
2022/05/05 18:01:38;;;;;;;;;;;;;;;;;;;;;
2022/05/05 18:07:29;;;;;;;8.73;4.93;;;18.50;66.90;;;;;;5106399;28;20063;-88
2022/05/05 18:13:23;;;;;;;7.25;5.05;;;18.50;67.40;;;;;;5076179;28;20059;-85
2022/05/05 18:16:14;;;;;;;7.88;5.55;;;18.50;67.50;;;;;;5064911;28;20494;-86
2022/05/05 18:19:16;;;;;;;;;;;;;;;;;;;;;
2022/05/05 18:22:17;;;;;;;;;;;;;;;;;;;;;
2022/05/05 18:25:03;;;;;;;7.38;5.32;;;18.40;67.80;;;;;;5048337;28;20032;-88
2022/05/05 18:27:53;;;;;;;6.10;4.95;;;18.40;67.90;;;;;;5077966;28;20081;-88
2022/05/05 18:47:18;;;;;;;;;;;;;;;;;;;;;
2022/05/05 18:50:07;;;;;;;5.65;4.63;;;18.20;69.30;;;;;;5061512;28;20119;-90
2022/05/05 18:52:58;;;;;;;;;;;;;;;;;;;;;
2022/05/05 18:55:42;;;;;;;6.47;5.20;;;18.10;69.90;;;;;;5079832;28;20052;-90
2022/05/05 18:58:27;;;;;;;;;;;;;;;;;;;;;
2022/05/05 19:01:18;;;;;;;7.80;4.97;;;18.10;70.20;;;;;;5104174;28;20466;-89
2022/05/05 19:03:55;;;;;;;7.10;5.63;;;18.10;70.30;;;;;;5069573;28;20035;-89
2022/05/05 19:06:47;;;;;;;6.93;5.78;;;18.00;70.20;;;;;;5053611;28;20024;-90
2022/05/05 19:09:36;;;;;;;6.03;5.18;;;18.00;70.20;;;;;;5083514;28;20563;-89
2022/05/05 19:12:26;;;;;;;6.53;5.43;;;18.00;70.20;;;;;;5068229;28;20115;-91
2022/05/05 19:15:02;;;;;;;5.70;4.70;;;18.00;70.20;;;;;;5081554;28;20052;-91
2022/05/05 19:17:37;;;;;;;7.82;5.22;;;18.00;70.20;;;;;;5079197;28;20661;-91
2022/05/05 19:20:10;;;;;;;7.43;5.70;;;17.90;70.30;;;;;;5065654;28;20118;-90
2022/05/05 19:22:39;;;;;;;7.95;5.47;;;17.90;70.60;;;;;;5081956;28;20024;-90
2022/05/05 19:25:10;;;;;;;6.50;5.60;;;17.90;70.80;;;;;;5080891;28;20577;-92
2022/05/05 19:27:41;;;;;;;;;;;17.80;71.00;;;;;;5081218;28;20515;-90
2022/05/05 19:30:12;;;;;;;5.78;5.07;;;17.80;71.10;;;;;;5079217;28;19912;-90
2022/05/05 19:32:46;;;;;;;6.53;5.45;;;17.70;71.20;;;;;;5079851;28;20020;-90
2022/05/05 19:35:22;;;;;;;6.97;5.22;;;17.60;71.60;;;;;;5063327;28;20062;-89
2022/05/05 19:37:57;;;;;;;7.72;5.53;;;17.60;71.90;;;;;;5067221;28;20035;-90
2022/05/05 19:40:35;;;;;;;6.55;5.65;;;17.50;72.10;;;;;;5083868;28;20092;-89
2022/05/05 19:43:08;;;;;;;7.22;6.07;;;17.40;72.50;;;;;;5065546;28;20032;-89
2022/05/05 19:45:39;;;;;;;8.77;6.20;;;17.30;72.90;;;;;;5084343;28;20028;-90
2022/05/05 19:48:18;;;;;;;7.97;5.85;;;17.30;73.30;;;;;;5067625;28;20460;-88
2022/05/05 19:50:46;;;;;;;10.98;7.05;;;17.20;73.40;;;;;;5097321;28;20032;-89
2022/05/05 19:53:24;;;;;;;9.73;7.18;;;17.10;73.70;;;;;;5079447;28;20024;-90
2022/05/05 20:01:44;;;;;;;7.55;6.68;;;16.90;75.00;;;;;;5105116;28;20069;-88
2022/05/05 20:04:24;;;;;;;9.45;6.70;;;16.80;75.20;;;;;;5117467;28;20036;-89
2022/05/05 20:09:49;;;;;;;9.38;6.43;;;16.60;75.70;;;;;;5085170;28;20704;-90
2022/05/05 20:12:18;;;;;;;8.80;6.85;;;16.50;76.00;;;;;;5078529;28;20468;-90
2022/05/05 20:14:49;;;;;;;7.90;7.10;;;16.50;76.30;;;;;;5058067;28;20048;-90
2022/05/05 20:17:53;;;;;;;;;;;;;;;;;;;;;
2022/05/05 20:20:22;;;;;;;8.68;7.15;;;16.40;76.70;;;;;;5074898;28;20036;-89
2022/05/05 20:22:58;;;;;;;;;;;;;;;;;;;;;
2022/05/05 20:25:49;;;;;;;12.43;7.57;;;16.30;76.80;;;;;;5075697;28;20021;-90
2022/05/05 20:28:36;;;;;;;12.10;7.53;;;16.30;77.00;;;;;;5059018;28;20035;-89
2022/05/05 20:31:23;;;;;;;9.75;7.13;;;16.20;77.00;;;;;;5074785;28;20143;-88
2022/05/05 20:33:49;;;;;;;10.18;7.68;;;16.20;77.10;;;;;;5074439;28;20025;-89
2022/05/05 20:36:24;;;;;;;9.13;7.68;;;16.20;77.10;;;;;;5074366;28;20089;-88
2022/05/05 20:38:59;;;;;;;9.57;7.50;;;16.10;77.50;;;;;;5073614;28;20507;-90
2022/05/05 20:41:38;;;;;;;9.50;7.85;;;16.10;77.60;;;;;;5074139;28;20020;-90
2022/05/05 20:44:05;;;;;;;10.50;7.57;;;16.00;77.90;;;;;;5073954;28;20024;-90
2022/05/05 20:46:45;;;;;;;10.15;8.20;;;15.90;78.20;;;;;;5073856;28;20044;-89
2022/05/05 20:56:38;;;;;;;;;;;15.70;79.10;;;;;;5014673;28;20033;-88
2022/05/05 20:59:45;;;;;;;10.57;7.43;;;15.60;78.90;;;;;;5013574;28;19920;-90
2022/05/05 21:05:42;;;;;;;;;;;;;;;;;;;;;
2022/05/05 21:08:18;;;;;;;10.30;7.60;;;15.50;79.00;;;;;;5075276;28;20039;-90
2022/05/05 21:10:47;;;;;;;8.60;7.00;;;15.50;78.90;;;;;;5074010;28;20119;-90
2022/05/05 21:13:20;;;;;;;9.85;7.70;;;15.50;78.90;;;;;;5073263;28;20127;-90